Delhi, LA (71232)

5:46 PM CDT on August 27, 2016 (GMT -0500)
Ruff. Rd. | | Change Station

Elev 85 ft 32.57 °N, 91.64 °W | Updated 16 seconds ago

Clear
Clear
90.7 °F
Feels Like 100 °F
N
2.0
Wind Variable Wind from SSE
Gusts 4.9 mph

Today
High -- | Low -- °F
--% Chance of Precip.
Yesterday
High -- | Low -- °F
Precip. -- in
Pressure 29.96 in
Visibility 10.0 miles
Clouds Clear
Heat Index 100 °F
Dew Point 74 °F
Humidity 58%
Rainfall 0.00 in
Snow Depth Not available.
6:38 AM 7:36 PM
Waning Crescent, 21% visible
METAR KTVR 272153Z AUTO 07007KT 10SM CLR 34/22 A2994 RMK AO2 SLP144 T03390217
Pressure 29.96 in
Visibility 10.0 miles
Clouds Clear
Heat Index 100 °F
Dew Point 74 °F
Humidity 58%
Rainfall 0.00 in
Snow Depth Not available.
6:38 AM 7:36 PM
Waning Crescent, 21% visible
METAR KTVR 272153Z AUTO 07007KT 10SM CLR 34/22 A2994 RMK AO2 SLP144 T03390217

10-Day Weather Forecast

Almanac

Astronomy

Aug. 27, 2016 Rise Set
Actual Time
Civil Twilight
Nautical Twilight
Astronomical Twilight
Moon
Length of Visible Light
Length of Day
Tomorrow will be .
, % of the Moon is Illuminated

Today's Extremes

State Highs State Lows

Community

WunderPhotos

Upload Photos

1,935,458 photos uploaded!

WunderBlog® & News

Nearby

Air Quality

  Air Quality AQ Index Pollutant
Not available.

Snow Depth

Station Depth Elevation

Earthquake Activity

City Distance Mag. Time & Date
Minimum magnitude displayed is 2.5.

Coastal Water Temperatures

Place Temperature

Stations

Nearby Weather Stations

Station Location Temp. Windchill Dew Point Humidity Wind Precip. Elev Updated Type
                   

Watches & Warnings

There are currently no watches in effect.